Mangohick, Virginia
Current Conditions -  °F | °C
As of 11:54 AM on Saturday 22 Nov 2014 (Local Time) from KOFP Reporting Station
Clear Clear  
Wind Chill: 41°   Ceiling: Unl
Heat Index: 46°   Visibility: 10mi
Dew Point: 14°   Wind: 9mph
Humidity: 28%   Direction: 210°SSW
Pressure: 30.49"   Gusts: NA
Location:  37.7857°N, 77.3107°W
Report Text: KOFP 221654Z AUTO 21008KT 170V230 10SM CLR 08/M10 A3049 RMK AO2 SLP325 T00781100
Loading
Personal Weather Stations






























Interactive Weather Map New forecast layout! Learn more

10-Day Weather Forecast

Advertisements
Track Severe Weather on mobile